sensor_id;sensor_type;location;lat;lon;timestamp;P1;durP1;ratioP1;P2;durP2;ratioP2
9138;SDS011;4604;48.616;9.548;2023-05-10T00:00:37;0.50;;;0.50;;
9138;SDS011;4604;48.616;9.548;2023-05-10T00:03:04;1.10;;;0.52;;
9138;SDS011;4604;48.616;9.548;2023-05-10T00:05:48;0.65;;;0.40;;
9138;SDS011;4604;48.616;9.548;2023-05-10T00:08:44;0.75;;;0.50;;
9138;SDS011;4604;48.616;9.548;2023-05-10T00:11:30;0.40;;;0.40;;
9138;SDS011;4604;48.616;9.548;2023-05-10T00:14:03;0.30;;;0.30;;
9138;SDS011;4604;48.616;9.548;2023-05-10T00:17:01;0.22;;;0.22;;
9138;SDS011;4604;48.616;9.548;2023-05-10T00:19:30;0.20;;;0.20;;
9138;SDS011;4604;48.616;9.548;2023-05-10T00:21:59;0.30;;;0.30;;
9138;SDS011;4604;48.616;9.548;2023-05-10T00:24:29;0.40;;;0.40;;
9138;SDS011;4604;48.616;9.548;2023-05-10T00:27:30;0.35;;;0.30;;
9138;SDS011;4604;48.616;9.548;2023-05-10T00:30:16;0.38;;;0.38;;
9138;SDS011;4604;48.616;9.548;2023-05-10T00:32:54;0.40;;;0.40;;
9138;SDS011;4604;48.616;9.548;2023-05-10T00:35:30;0.40;;;0.30;;
9138;SDS011;4604;48.616;9.548;2023-05-10T00:38:03;0.40;;;0.40;;
9138;SDS011;4604;48.616;9.548;2023-05-10T00:40:49;0.32;;;0.32;;
9138;SDS011;4604;48.616;9.548;2023-05-10T00:43:39;0.35;;;0.28;;
9138;SDS011;4604;48.616;9.548;2023-05-10T00:46:14;0.30;;;0.30;;
9138;SDS011;4604;48.616;9.548;2023-05-10T00:48:53;0.30;;;0.30;;
9138;SDS011;4604;48.616;9.548;2023-05-10T00:51:37;0.30;;;0.30;;
9138;SDS011;4604;48.616;9.548;2023-05-10T00:54:11;0.30;;;0.30;;
9138;SDS011;4604;48.616;9.548;2023-05-10T00:57:00;0.20;;;0.20;;
9138;SDS011;4604;48.616;9.548;2023-05-10T01:02:43;0.30;;;0.30;;
9138;SDS011;4604;48.616;9.548;2023-05-10T01:05:33;0.35;;;0.20;;
9138;SDS011;4604;48.616;9.548;2023-05-10T01:08:20;1.15;;;0.60;;
9138;SDS011;4604;48.616;9.548;2023-05-10T01:10:56;0.40;;;0.40;;
9138;SDS011;4604;48.616;9.548;2023-05-10T01:13:40;1.87;;;0.27;;
9138;SDS011;4604;48.616;9.548;2023-05-10T01:16:20;0.60;;;0.50;;
9138;SDS011;4604;48.616;9.548;2023-05-10T01:19:04;0.63;;;0.63;;
9138;SDS011;4604;48.616;9.548;2023-05-10T01:21:58;0.82;;;0.60;;
9138;SDS011;4604;48.616;9.548;2023-05-10T01:24:40;2.20;;;0.73;;
9138;SDS011;4604;48.616;9.548;2023-05-10T01:28:00;0.50;;;0.50;;
9138;SDS011;4604;48.616;9.548;2023-05-10T01:31:12;0.50;;;0.50;;
9138;SDS011;4604;48.616;9.548;2023-05-10T01:34:31;1.93;;;0.70;;
9138;SDS011;4604;48.616;9.548;2023-05-10T01:37:49;1.10;;;0.60;;
9138;SDS011;4604;48.616;9.548;2023-05-10T01:40:22;0.50;;;0.50;;
9138;SDS011;4604;48.616;9.548;2023-05-10T01:43:17;1.07;;;0.60;;
9138;SDS011;4604;48.616;9.548;2023-05-10T01:46:02;0.20;;;0.20;;
9138;SDS011;4604;48.616;9.548;2023-05-10T01:48:45;2.40;;;1.10;;
9138;SDS011;4604;48.616;9.548;2023-05-10T01:51:27;0.60;;;0.60;;
9138;SDS011;4604;48.616;9.548;2023-05-10T01:54:08;0.50;;;0.30;;
9138;SDS011;4604;48.616;9.548;2023-05-10T01:56:54;0.63;;;0.33;;
9138;SDS011;4604;48.616;9.548;2023-05-10T01:59:35;0.40;;;0.40;;
9138;SDS011;4604;48.616;9.548;2023-05-10T02:02:17;1.17;;;0.50;;
9138;SDS011;4604;48.616;9.548;2023-05-10T02:05:05;1.07;;;0.60;;
9138;SDS011;4604;48.616;9.548;2023-05-10T02:07:51;0.63;;;0.63;;
9138;SDS011;4604;48.616;9.548;2023-05-10T02:10:23;2.03;;;0.50;;
9138;SDS011;4604;48.616;9.548;2023-05-10T02:13:16;0.53;;;0.53;;
9138;SDS011;4604;48.616;9.548;2023-05-10T02:15:57;0.57;;;0.57;;
9138;SDS011;4604;48.616;9.548;2023-05-10T02:18:59;0.53;;;0.53;;
9138;SDS011;4604;48.616;9.548;2023-05-10T02:21:33;0.50;;;0.50;;
9138;SDS011;4604;48.616;9.548;2023-05-10T02:24:15;0.70;;;0.70;;
9138;SDS011;4604;48.616;9.548;2023-05-10T02:27:05;3.70;;;0.90;;
9138;SDS011;4604;48.616;9.548;2023-05-10T02:30:01;0.43;;;0.43;;
9138;SDS011;4604;48.616;9.548;2023-05-10T02:32:48;0.93;;;0.73;;
9138;SDS011;4604;48.616;9.548;2023-05-10T02:35:23;2.10;;;0.60;;
9138;SDS011;4604;48.616;9.548;2023-05-10T02:38:04;1.00;;;0.90;;
9138;SDS011;4604;48.616;9.548;2023-05-10T02:40:43;0.80;;;0.80;;
9138;SDS011;4604;48.616;9.548;2023-05-10T02:43:25;0.80;;;0.80;;
9138;SDS011;4604;48.616;9.548;2023-05-10T02:46:19;0.80;;;0.80;;
9138;SDS011;4604;48.616;9.548;2023-05-10T02:49:00;4.40;;;0.80;;
9138;SDS011;4604;48.616;9.548;2023-05-10T02:51:56;0.60;;;0.60;;
9138;SDS011;4604;48.616;9.548;2023-05-10T02:54:37;1.50;;;0.80;;
9138;SDS011;4604;48.616;9.548;2023-05-10T02:57:27;0.80;;;0.70;;
9138;SDS011;4604;48.616;9.548;2023-05-10T03:00:09;0.47;;;0.47;;
9138;SDS011;4604;48.616;9.548;2023-05-10T03:03:00;0.70;;;0.67;;
9138;SDS011;4604;48.616;9.548;2023-05-10T03:05:37;0.40;;;0.40;;
9138;SDS011;4604;48.616;9.548;2023-05-10T03:08:17;1.27;;;0.73;;
9138;SDS011;4604;48.616;9.548;2023-05-10T03:11:07;2.93;;;0.53;;
9138;SDS011;4604;48.616;9.548;2023-05-10T03:14:02;3.23;;;0.83;;
9138;SDS011;4604;48.616;9.548;2023-05-10T03:16:52;2.23;;;0.63;;
9138;SDS011;4604;48.616;9.548;2023-05-10T03:19:47;0.53;;;0.50;;
9138;SDS011;4604;48.616;9.548;2023-05-10T03:22:28;0.77;;;0.73;;
9138;SDS011;4604;48.616;9.548;2023-05-10T03:25:10;2.03;;;0.50;;
9138;SDS011;4604;48.616;9.548;2023-05-10T03:27:47;0.77;;;0.60;;
9138;SDS011;4604;48.616;9.548;2023-05-10T03:30:26;0.70;;;0.70;;
9138;SDS011;4604;48.616;9.548;2023-05-10T03:33:08;0.60;;;0.60;;
9138;SDS011;4604;48.616;9.548;2023-05-10T03:35:49;0.87;;;0.87;;
9138;SDS011;4604;48.616;9.548;2023-05-10T03:38:36;0.60;;;0.50;;
9138;SDS011;4604;48.616;9.548;2023-05-10T03:41:20;0.80;;;0.80;;
9138;SDS011;4604;48.616;9.548;2023-05-10T03:43:55;2.07;;;1.73;;
9138;SDS011;4604;48.616;9.548;2023-05-10T03:46:39;5.87;;;1.70;;
9138;SDS011;4604;48.616;9.548;2023-05-10T03:49:31;1.97;;;1.50;;
9138;SDS011;4604;48.616;9.548;2023-05-10T03:52:11;1.33;;;1.20;;
9138;SDS011;4604;48.616;9.548;2023-05-10T03:54:47;2.03;;;1.33;;
9138;SDS011;4604;48.616;9.548;2023-05-10T03:57:19;4.30;;;1.30;;
9138;SDS011;4604;48.616;9.548;2023-05-10T03:59:55;0.70;;;0.70;;
9138;SDS011;4604;48.616;9.548;2023-05-10T04:02:30;0.83;;;0.83;;
9138;SDS011;4604;48.616;9.548;2023-05-10T04:05:02;1.00;;;1.00;;
9138;SDS011;4604;48.616;9.548;2023-05-10T04:07:52;1.93;;;1.00;;
9138;SDS011;4604;48.616;9.548;2023-05-10T04:10:39;0.83;;;0.83;;
9138;SDS011;4604;48.616;9.548;2023-05-10T04:13:11;1.67;;;0.97;;
9138;SDS011;4604;48.616;9.548;2023-05-10T04:15:49;1.13;;;1.03;;
9138;SDS011;4604;48.616;9.548;2023-05-10T04:18:30;0.93;;;0.93;;
9138;SDS011;4604;48.616;9.548;2023-05-10T04:21:00;0.83;;;0.83;;
9138;SDS011;4604;48.616;9.548;2023-05-10T04:23:43;1.00;;;1.00;;
9138;SDS011;4604;48.616;9.548;2023-05-10T04:26:13;0.93;;;0.93;;
9138;SDS011;4604;48.616;9.548;2023-05-10T04:28:45;1.30;;;1.20;;
9138;SDS011;4604;48.616;9.548;2023-05-10T04:31:17;1.97;;;0.93;;
9138;SDS011;4604;48.616;9.548;2023-05-10T04:33:54;1.27;;;1.17;;
9138;SDS011;4604;48.616;9.548;2023-05-10T04:36:37;1.00;;;1.00;;
9138;SDS011;4604;48.616;9.548;2023-05-10T04:39:04;1.63;;;1.00;;
9138;SDS011;4604;48.616;9.548;2023-05-10T04:41:31;2.00;;;0.70;;
9138;SDS011;4604;48.616;9.548;2023-05-10T04:43:57;1.00;;;0.90;;
9138;SDS011;4604;48.616;9.548;2023-05-10T04:46:24;1.20;;;1.10;;
9138;SDS011;4604;48.616;9.548;2023-05-10T04:48:52;1.40;;;1.00;;
9138;SDS011;4604;48.616;9.548;2023-05-10T04:51:19;1.40;;;1.20;;
9138;SDS011;4604;48.616;9.548;2023-05-10T04:53:46;1.20;;;1.10;;
9138;SDS011;4604;48.616;9.548;2023-05-10T04:56:13;2.07;;;1.10;;
9138;SDS011;4604;48.616;9.548;2023-05-10T04:58:41;0.90;;;0.90;;
9138;SDS011;4604;48.616;9.548;2023-05-10T05:01:07;1.13;;;1.00;;
9138;SDS011;4604;48.616;9.548;2023-05-10T05:03:35;1.10;;;1.00;;
9138;SDS011;4604;48.616;9.548;2023-05-10T05:06:06;1.47;;;0.80;;
9138;SDS011;4604;48.616;9.548;2023-05-10T05:08:33;1.00;;;1.00;;
9138;SDS011;4604;48.616;9.548;2023-05-10T05:11:00;2.30;;;1.20;;
9138;SDS011;4604;48.616;9.548;2023-05-10T05:13:27;1.20;;;1.10;;
9138;SDS011;4604;48.616;9.548;2023-05-10T05:15:53;0.90;;;0.90;;
9138;SDS011;4604;48.616;9.548;2023-05-10T05:18:20;1.00;;;0.80;;
9138;SDS011;4604;48.616;9.548;2023-05-10T05:20:50;1.77;;;0.60;;
9138;SDS011;4604;48.616;9.548;2023-05-10T05:23:18;0.80;;;0.80;;
9138;SDS011;4604;48.616;9.548;2023-05-10T05:25:45;3.70;;;1.37;;
9138;SDS011;4604;48.616;9.548;2023-05-10T05:28:12;1.50;;;1.30;;
9138;SDS011;4604;48.616;9.548;2023-05-10T05:30:39;1.27;;;1.17;;
9138;SDS011;4604;48.616;9.548;2023-05-10T05:33:06;2.60;;;1.30;;
9138;SDS011;4604;48.616;9.548;2023-05-10T05:35:32;1.50;;;1.40;;
9138;SDS011;4604;48.616;9.548;2023-05-10T05:37:59;1.20;;;1.10;;
9138;SDS011;4604;48.616;9.548;2023-05-10T05:40:27;4.03;;;1.30;;
9138;SDS011;4604;48.616;9.548;2023-05-10T05:42:54;0.70;;;0.70;;
9138;SDS011;4604;48.616;9.548;2023-05-10T05:45:21;1.33;;;1.23;;
9138;SDS011;4604;48.616;9.548;2023-05-10T05:47:47;1.50;;;0.95;;
9138;SDS011;4604;48.616;9.548;2023-05-10T05:50:14;2.90;;;1.10;;
9138;SDS011;4604;48.616;9.548;2023-05-10T05:52:41;1.13;;;1.03;;
9138;SDS011;4604;48.616;9.548;2023-05-10T05:55:08;1.30;;;1.20;;
9138;SDS011;4604;48.616;9.548;2023-05-10T05:57:36;1.30;;;1.20;;
9138;SDS011;4604;48.616;9.548;2023-05-10T06:00:03;1.50;;;1.37;;
9138;SDS011;4604;48.616;9.548;2023-05-10T06:02:31;1.35;;;1.13;;
9138;SDS011;4604;48.616;9.548;2023-05-10T06:04:57;1.10;;;1.10;;
9138;SDS011;4604;48.616;9.548;2023-05-10T06:07:24;1.17;;;1.10;;
9138;SDS011;4604;48.616;9.548;2023-05-10T06:09:51;1.17;;;1.07;;
9138;SDS011;4604;48.616;9.548;2023-05-10T06:12:17;1.17;;;1.07;;
9138;SDS011;4604;48.616;9.548;2023-05-10T06:14:46;1.07;;;1.07;;
9138;SDS011;4604;48.616;9.548;2023-05-10T06:17:12;0.97;;;0.90;;
9138;SDS011;4604;48.616;9.548;2023-05-10T06:19:39;1.07;;;0.90;;
9138;SDS011;4604;48.616;9.548;2023-05-10T06:22:06;2.53;;;1.10;;
9138;SDS011;4604;48.616;9.548;2023-05-10T06:24:32;1.30;;;1.20;;
9138;SDS011;4604;48.616;9.548;2023-05-10T06:27:01;1.90;;;1.27;;
9138;SDS011;4604;48.616;9.548;2023-05-10T06:29:49;0.97;;;0.93;;
9138;SDS011;4604;48.616;9.548;2023-05-10T06:32:37;1.43;;;1.30;;
9138;SDS011;4604;48.616;9.548;2023-05-10T06:35:09;1.20;;;1.10;;
9138;SDS011;4604;48.616;9.548;2023-05-10T06:37:36;3.10;;;1.40;;
9138;SDS011;4604;48.616;9.548;2023-05-10T06:40:06;0.93;;;0.93;;
9138;SDS011;4604;48.616;9.548;2023-05-10T06:42:35;1.40;;;1.30;;
9138;SDS011;4604;48.616;9.548;2023-05-10T06:45:05;1.40;;;1.30;;
9138;SDS011;4604;48.616;9.548;2023-05-10T06:47:33;3.10;;;1.30;;
9138;SDS011;4604;48.616;9.548;2023-05-10T06:50:02;3.10;;;1.30;;
9138;SDS011;4604;48.616;9.548;2023-05-10T06:52:29;2.60;;;1.37;;
9138;SDS011;4604;48.616;9.548;2023-05-10T06:54:56;1.25;;;1.15;;
9138;SDS011;4604;48.616;9.548;2023-05-10T06:57:23;1.92;;;1.50;;
9138;SDS011;4604;48.616;9.548;2023-05-10T06:59:50;1.30;;;1.20;;
9138;SDS011;4604;48.616;9.548;2023-05-10T07:02:19;1.30;;;1.20;;
9138;SDS011;4604;48.616;9.548;2023-05-10T07:04:46;3.63;;;1.70;;
9138;SDS011;4604;48.616;9.548;2023-05-10T07:07:13;2.50;;;1.33;;
9138;SDS011;4604;48.616;9.548;2023-05-10T07:09:40;3.97;;;1.57;;
9138;SDS011;4604;48.616;9.548;2023-05-10T07:12:07;1.33;;;1.23;;
9138;SDS011;4604;48.616;9.548;2023-05-10T07:14:35;1.13;;;1.07;;
9138;SDS011;4604;48.616;9.548;2023-05-10T07:17:02;0.93;;;0.90;;
9138;SDS011;4604;48.616;9.548;2023-05-10T07:19:30;1.30;;;1.20;;
9138;SDS011;4604;48.616;9.548;2023-05-10T07:21:57;2.17;;;1.20;;
9138;SDS011;4604;48.616;9.548;2023-05-10T07:24:25;4.03;;;1.30;;
9138;SDS011;4604;48.616;9.548;2023-05-10T07:26:52;2.10;;;1.17;;
9138;SDS011;4604;48.616;9.548;2023-05-10T07:29:19;1.38;;;1.08;;
9138;SDS011;4604;48.616;9.548;2023-05-10T07:31:46;2.07;;;1.10;;
9138;SDS011;4604;48.616;9.548;2023-05-10T07:34:13;1.42;;;1.05;;
9138;SDS011;4604;48.616;9.548;2023-05-10T07:36:41;2.75;;;1.55;;
9138;SDS011;4604;48.616;9.548;2023-05-10T07:39:09;4.35;;;1.80;;
9138;SDS011;4604;48.616;9.548;2023-05-10T07:41:35;1.98;;;1.40;;
9138;SDS011;4604;48.616;9.548;2023-05-10T07:44:04;1.40;;;1.30;;
9138;SDS011;4604;48.616;9.548;2023-05-10T07:46:31;1.98;;;1.23;;
9138;SDS011;4604;48.616;9.548;2023-05-10T07:48:58;1.73;;;1.17;;
9138;SDS011;4604;48.616;9.548;2023-05-10T07:51:25;1.25;;;1.15;;
9138;SDS011;4604;48.616;9.548;2023-05-10T07:53:54;2.22;;;1.20;;
9138;SDS011;4604;48.616;9.548;2023-05-10T07:56:23;2.10;;;1.17;;
9138;SDS011;4604;48.616;9.548;2023-05-10T07:58:52;3.40;;;1.20;;
9138;SDS011;4604;48.616;9.548;2023-05-10T08:01:20;1.05;;;0.95;;
9138;SDS011;4604;48.616;9.548;2023-05-10T08:03:47;1.00;;;1.00;;
9138;SDS011;4604;48.616;9.548;2023-05-10T08:06:16;3.78;;;1.30;;
9138;SDS011;4604;48.616;9.548;2023-05-10T08:08:44;1.20;;;1.10;;
9138;SDS011;4604;48.616;9.548;2023-05-10T08:11:16;1.08;;;0.80;;
9138;SDS011;4604;48.616;9.548;2023-05-10T08:13:43;1.30;;;0.98;;
9138;SDS011;4604;48.616;9.548;2023-05-10T08:16:17;2.67;;;1.08;;
9138;SDS011;4604;48.616;9.548;2023-05-10T08:18:47;2.03;;;1.70;;
9138;SDS011;4604;48.616;9.548;2023-05-10T08:21:15;2.55;;;1.50;;
9138;SDS011;4604;48.616;9.548;2023-05-10T08:23:42;1.58;;;0.95;;
9138;SDS011;4604;48.616;9.548;2023-05-10T08:26:09;1.67;;;1.20;;
9138;SDS011;4604;48.616;9.548;2023-05-10T08:28:38;1.08;;;1.05;;
9138;SDS011;4604;48.616;9.548;2023-05-10T08:31:05;1.38;;;0.90;;
9138;SDS011;4604;48.616;9.548;2023-05-10T08:33:33;3.13;;;2.22;;
9138;SDS011;4604;48.616;9.548;2023-05-10T08:36:00;2.05;;;1.83;;
9138;SDS011;4604;48.616;9.548;2023-05-10T08:38:27;2.42;;;1.77;;
9138;SDS011;4604;48.616;9.548;2023-05-10T08:40:56;2.80;;;0.98;;
9138;SDS011;4604;48.616;9.548;2023-05-10T08:43:26;0.70;;;0.70;;
9138;SDS011;4604;48.616;9.548;2023-05-10T08:45:56;0.68;;;0.65;;
9138;SDS011;4604;48.616;9.548;2023-05-10T08:48:27;1.65;;;0.90;;
9138;SDS011;4604;48.616;9.548;2023-05-10T08:50:56;0.85;;;0.85;;
9138;SDS011;4604;48.616;9.548;2023-05-10T08:53:25;0.80;;;0.77;;
9138;SDS011;4604;48.616;9.548;2023-05-10T08:55:55;0.75;;;0.75;;
9138;SDS011;4604;48.616;9.548;2023-05-10T08:58:22;0.73;;;0.73;;
9138;SDS011;4604;48.616;9.548;2023-05-10T09:00:49;0.82;;;0.82;;
9138;SDS011;4604;48.616;9.548;2023-05-10T09:03:18;1.05;;;0.80;;
9138;SDS011;4604;48.616;9.548;2023-05-10T09:05:45;1.58;;;0.73;;
9138;SDS011;4604;48.616;9.548;2023-05-10T09:08:13;0.77;;;0.70;;
9138;SDS011;4604;48.616;9.548;2023-05-10T09:10:42;6.32;;;0.85;;
9138;SDS011;4604;48.616;9.548;2023-05-10T09:13:12;0.70;;;0.70;;
9138;SDS011;4604;48.616;9.548;2023-05-10T09:15:51;0.52;;;0.52;;
9138;SDS011;4604;48.616;9.548;2023-05-10T09:18:20;0.52;;;0.52;;
9138;SDS011;4604;48.616;9.548;2023-05-10T09:20:50;1.35;;;0.70;;
9138;SDS011;4604;48.616;9.548;2023-05-10T09:23:17;0.80;;;0.80;;
9138;SDS011;4604;48.616;9.548;2023-05-10T09:25:45;1.00;;;0.73;;
9138;SDS011;4604;48.616;9.548;2023-05-10T09:28:12;1.70;;;0.93;;
9138;SDS011;4604;48.616;9.548;2023-05-10T09:30:39;1.10;;;0.98;;
9138;SDS011;4604;48.616;9.548;2023-05-10T09:33:08;2.53;;;0.82;;
9138;SDS011;4604;48.616;9.548;2023-05-10T09:35:36;0.80;;;0.80;;
9138;SDS011;4604;48.616;9.548;2023-05-10T09:38:05;0.75;;;0.75;;
9138;SDS011;4604;48.616;9.548;2023-05-10T09:40:32;0.70;;;0.70;;
9138;SDS011;4604;48.616;9.548;2023-05-10T09:42:59;2.13;;;1.15;;
9138;SDS011;4604;48.616;9.548;2023-05-10T09:45:28;1.77;;;1.05;;
9138;SDS011;4604;48.616;9.548;2023-05-10T09:48:00;1.88;;;1.08;;
9138;SDS011;4604;48.616;9.548;2023-05-10T09:50:28;1.38;;;0.90;;
9138;SDS011;4604;48.616;9.548;2023-05-10T09:53:00;1.20;;;1.10;;
9138;SDS011;4604;48.616;9.548;2023-05-10T09:55:45;1.30;;;0.90;;
9138;SDS011;4604;48.616;9.548;2023-05-10T09:58:23;0.95;;;0.90;;
9138;SDS011;4604;48.616;9.548;2023-05-10T10:01:03;0.60;;;0.60;;
9138;SDS011;4604;48.616;9.548;2023-05-10T10:03:52;0.70;;;0.70;;
9138;SDS011;4604;48.616;9.548;2023-05-10T10:06:39;0.70;;;0.70;;
9138;SDS011;4604;48.616;9.548;2023-05-10T10:09:23;1.10;;;0.75;;
9138;SDS011;4604;48.616;9.548;2023-05-10T10:11:50;0.70;;;0.70;;
9138;SDS011;4604;48.616;9.548;2023-05-10T10:14:18;0.70;;;0.70;;
9138;SDS011;4604;48.616;9.548;2023-05-10T10:16:45;0.45;;;0.45;;
9138;SDS011;4604;48.616;9.548;2023-05-10T10:19:12;2.53;;;0.85;;
9138;SDS011;4604;48.616;9.548;2023-05-10T10:21:40;0.60;;;0.60;;
9138;SDS011;4604;48.616;9.548;2023-05-10T10:24:07;3.03;;;0.68;;
9138;SDS011;4604;48.616;9.548;2023-05-10T10:26:35;0.93;;;0.88;;
9138;SDS011;4604;48.616;9.548;2023-05-10T10:29:07;0.73;;;0.73;;
9138;SDS011;4604;48.616;9.548;2023-05-10T10:31:45;0.68;;;0.68;;
9138;SDS011;4604;48.616;9.548;2023-05-10T10:34:19;0.70;;;0.70;;
9138;SDS011;4604;48.616;9.548;2023-05-10T10:36:54;1.55;;;0.75;;
9138;SDS011;4604;48.616;9.548;2023-05-10T10:39:22;1.25;;;0.57;;
9138;SDS011;4604;48.616;9.548;2023-05-10T10:41:53;0.63;;;0.63;;
9138;SDS011;4604;48.616;9.548;2023-05-10T10:44:24;2.25;;;0.82;;
9138;SDS011;4604;48.616;9.548;2023-05-10T10:46:58;0.60;;;0.60;;
9138;SDS011;4604;48.616;9.548;2023-05-10T10:49:27;1.48;;;0.82;;
9138;SDS011;4604;48.616;9.548;2023-05-10T10:52:17;0.55;;;0.55;;
9138;SDS011;4604;48.616;9.548;2023-05-10T10:54:51;0.60;;;0.60;;
9138;SDS011;4604;48.616;9.548;2023-05-10T10:57:20;0.60;;;0.60;;
9138;SDS011;4604;48.616;9.548;2023-05-10T10:59:47;2.13;;;0.90;;
9138;SDS011;4604;48.616;9.548;2023-05-10T11:02:34;1.00;;;0.90;;
9138;SDS011;4604;48.616;9.548;2023-05-10T11:08:06;1.48;;;0.90;;
9138;SDS011;4604;48.616;9.548;2023-05-10T11:10:49;2.38;;;1.15;;
9138;SDS011;4604;48.616;9.548;2023-05-10T11:13:26;0.70;;;0.70;;
9138;SDS011;4604;48.616;9.548;2023-05-10T11:15:55;0.82;;;0.73;;
9138;SDS011;4604;48.616;9.548;2023-05-10T11:18:24;1.02;;;0.80;;
9138;SDS011;4604;48.616;9.548;2023-05-10T11:20:54;0.60;;;0.60;;
9138;SDS011;4604;48.616;9.548;2023-05-10T11:23:29;0.68;;;0.68;;
9138;SDS011;4604;48.616;9.548;2023-05-10T11:25:57;0.75;;;0.75;;
9138;SDS011;4604;48.616;9.548;2023-05-10T11:28:27;0.50;;;0.50;;
9138;SDS011;4604;48.616;9.548;2023-05-10T11:30:54;1.75;;;0.60;;
9138;SDS011;4604;48.616;9.548;2023-05-10T11:33:23;1.63;;;1.50;;
9138;SDS011;4604;48.616;9.548;2023-05-10T11:35:50;2.78;;;0.80;;
9138;SDS011;4604;48.616;9.548;2023-05-10T11:38:17;0.57;;;0.57;;
9138;SDS011;4604;48.616;9.548;2023-05-10T11:40:44;0.30;;;0.30;;
9138;SDS011;4604;48.616;9.548;2023-05-10T11:43:11;0.60;;;0.50;;
9138;SDS011;4604;48.616;9.548;2023-05-10T11:45:40;1.05;;;0.68;;
9138;SDS011;4604;48.616;9.548;2023-05-10T11:48:07;1.13;;;0.80;;
9138;SDS011;4604;48.616;9.548;2023-05-10T11:50:34;0.93;;;0.77;;
9138;SDS011;4604;48.616;9.548;2023-05-10T11:53:01;0.70;;;0.63;;
9138;SDS011;4604;48.616;9.548;2023-05-10T11:55:28;1.02;;;0.95;;
9138;SDS011;4604;48.616;9.548;2023-05-10T11:58:00;1.17;;;0.90;;
9138;SDS011;4604;48.616;9.548;2023-05-10T12:00:29;1.20;;;1.10;;
9138;SDS011;4604;48.616;9.548;2023-05-10T12:03:00;0.75;;;0.75;;
9138;SDS011;4604;48.616;9.548;2023-05-10T12:05:31;1.83;;;0.80;;
9138;SDS011;4604;48.616;9.548;2023-05-10T12:08:12;0.60;;;0.55;;
9138;SDS011;4604;48.616;9.548;2023-05-10T12:10:40;0.70;;;0.70;;
9138;SDS011;4604;48.616;9.548;2023-05-10T12:13:11;0.43;;;0.43;;
9138;SDS011;4604;48.616;9.548;2023-05-10T12:15:40;0.70;;;0.70;;
9138;SDS011;4604;48.616;9.548;2023-05-10T12:18:09;0.70;;;0.68;;
9138;SDS011;4604;48.616;9.548;2023-05-10T12:20:37;0.73;;;0.73;;
9138;SDS011;4604;48.616;9.548;2023-05-10T12:23:04;0.50;;;0.50;;
9138;SDS011;4604;48.616;9.548;2023-05-10T12:25:32;1.23;;;0.63;;
9138;SDS011;4604;48.616;9.548;2023-05-10T12:28:02;1.07;;;0.70;;
9138;SDS011;4604;48.616;9.548;2023-05-10T12:30:31;0.77;;;0.77;;
9138;SDS011;4604;48.616;9.548;2023-05-10T12:33:00;1.87;;;0.80;;
9138;SDS011;4604;48.616;9.548;2023-05-10T12:35:31;0.90;;;0.87;;
9138;SDS011;4604;48.616;9.548;2023-05-10T12:37:58;1.70;;;1.00;;
9138;SDS011;4604;48.616;9.548;2023-05-10T12:40:50;1.27;;;0.93;;
9138;SDS011;4604;48.616;9.548;2023-05-10T12:43:22;0.90;;;0.90;;
9138;SDS011;4604;48.616;9.548;2023-05-10T12:45:59;0.83;;;0.83;;
9138;SDS011;4604;48.616;9.548;2023-05-10T12:48:31;5.47;;;1.37;;
9138;SDS011;4604;48.616;9.548;2023-05-10T12:51:05;1.87;;;1.20;;
9138;SDS011;4604;48.616;9.548;2023-05-10T12:53:34;1.70;;;1.13;;
9138;SDS011;4604;48.616;9.548;2023-05-10T12:56:01;2.30;;;1.23;;
9138;SDS011;4604;48.616;9.548;2023-05-10T12:58:29;1.30;;;1.00;;
9138;SDS011;4604;48.616;9.548;2023-05-10T13:00:58;1.30;;;0.93;;
9138;SDS011;4604;48.616;9.548;2023-05-10T13:03:40;1.02;;;0.82;;
9138;SDS011;4604;48.616;9.548;2023-05-10T13:09:28;1.67;;;1.38;;
9138;SDS011;4604;48.616;9.548;2023-05-10T13:12:11;1.42;;;1.20;;
9138;SDS011;4604;48.616;9.548;2023-05-10T13:14:50;1.38;;;1.10;;
9138;SDS011;4604;48.616;9.548;2023-05-10T13:17:25;1.52;;;1.10;;
9138;SDS011;4604;48.616;9.548;2023-05-10T13:19:59;0.88;;;0.88;;
9138;SDS011;4604;48.616;9.548;2023-05-10T13:23:03;1.90;;;1.13;;
9138;SDS011;4604;48.616;9.548;2023-05-10T13:25:33;1.65;;;1.10;;
9138;SDS011;4604;48.616;9.548;2023-05-10T13:28:04;2.35;;;1.10;;
9138;SDS011;4604;48.616;9.548;2023-05-10T13:30:32;3.58;;;1.15;;
9138;SDS011;4604;48.616;9.548;2023-05-10T13:33:04;0.80;;;0.70;;
9138;SDS011;4604;48.616;9.548;2023-05-10T13:35:34;2.55;;;1.10;;
9138;SDS011;4604;48.616;9.548;2023-05-10T13:38:06;2.10;;;1.20;;
9138;SDS011;4604;48.616;9.548;2023-05-10T13:40:34;3.97;;;1.20;;
9138;SDS011;4604;48.616;9.548;2023-05-10T13:43:02;2.55;;;1.15;;
9138;SDS011;4604;48.616;9.548;2023-05-10T13:45:30;1.98;;;1.40;;
9138;SDS011;4604;48.616;9.548;2023-05-10T13:47:57;2.20;;;1.55;;
9138;SDS011;4604;48.616;9.548;2023-05-10T13:50:24;2.72;;;1.27;;
9138;SDS011;4604;48.616;9.548;2023-05-10T13:52:52;3.80;;;1.35;;
9138;SDS011;4604;48.616;9.548;2023-05-10T13:55:23;3.08;;;1.10;;
9138;SDS011;4604;48.616;9.548;2023-05-10T13:57:51;1.20;;;1.10;;
9138;SDS011;4604;48.616;9.548;2023-05-10T14:00:18;2.00;;;1.42;;
9138;SDS011;4604;48.616;9.548;2023-05-10T14:02:48;1.00;;;1.00;;
9138;SDS011;4604;48.616;9.548;2023-05-10T14:05:18;2.22;;;1.42;;
9138;SDS011;4604;48.616;9.548;2023-05-10T14:07:45;1.60;;;1.20;;
9138;SDS011;4604;48.616;9.548;2023-05-10T14:10:13;1.75;;;0.90;;
9138;SDS011;4604;48.616;9.548;2023-05-10T14:12:41;1.17;;;1.05;;
9138;SDS011;4604;48.616;9.548;2023-05-10T14:15:11;1.20;;;1.05;;
9138;SDS011;4604;48.616;9.548;2023-05-10T14:17:38;1.83;;;1.20;;
9138;SDS011;4604;48.616;9.548;2023-05-10T14:20:06;3.17;;;1.65;;
9138;SDS011;4604;48.616;9.548;2023-05-10T14:22:41;1.85;;;1.40;;
9138;SDS011;4604;48.616;9.548;2023-05-10T14:25:12;1.08;;;0.82;;
9138;SDS011;4604;48.616;9.548;2023-05-10T14:27:42;1.08;;;1.05;;
9138;SDS011;4604;48.616;9.548;2023-05-10T14:30:10;2.03;;;1.10;;
9138;SDS011;4604;48.616;9.548;2023-05-10T14:32:38;3.70;;;1.33;;
9138;SDS011;4604;48.616;9.548;2023-05-10T14:35:06;1.75;;;1.20;;
9138;SDS011;4604;48.616;9.548;2023-05-10T14:37:36;1.45;;;0.93;;
9138;SDS011;4604;48.616;9.548;2023-05-10T14:40:04;3.13;;;1.30;;
9138;SDS011;4604;48.616;9.548;2023-05-10T14:42:32;1.30;;;1.20;;
9138;SDS011;4604;48.616;9.548;2023-05-10T14:45:02;1.10;;;1.00;;
9138;SDS011;4604;48.616;9.548;2023-05-10T14:47:33;1.23;;;1.13;;
9138;SDS011;4604;48.616;9.548;2023-05-10T14:50:01;1.55;;;1.20;;
9138;SDS011;4604;48.616;9.548;2023-05-10T14:52:29;2.10;;;0.95;;
9138;SDS011;4604;48.616;9.548;2023-05-10T14:54:56;1.38;;;1.27;;
9138;SDS011;4604;48.616;9.548;2023-05-10T14:57:26;1.45;;;1.20;;
9138;SDS011;4604;48.616;9.548;2023-05-10T14:59:54;2.63;;;1.10;;
9138;SDS011;4604;48.616;9.548;2023-05-10T15:02:24;4.70;;;1.30;;
9138;SDS011;4604;48.616;9.548;2023-05-10T15:05:00;1.63;;;1.20;;
9138;SDS011;4604;48.616;9.548;2023-05-10T15:07:31;1.67;;;1.40;;
9138;SDS011;4604;48.616;9.548;2023-05-10T15:09:59;1.17;;;1.10;;
9138;SDS011;4604;48.616;9.548;2023-05-10T15:12:33;1.10;;;1.08;;
9138;SDS011;4604;48.616;9.548;2023-05-10T15:15:07;4.00;;;2.58;;
9138;SDS011;4604;48.616;9.548;2023-05-10T15:17:36;4.85;;;2.33;;
9138;SDS011;4604;48.616;9.548;2023-05-10T15:20:08;1.80;;;1.55;;
9138;SDS011;4604;48.616;9.548;2023-05-10T15:22:37;2.25;;;1.48;;
9138;SDS011;4604;48.616;9.548;2023-05-10T15:25:11;2.25;;;1.30;;
9138;SDS011;4604;48.616;9.548;2023-05-10T15:27:40;1.42;;;1.30;;
9138;SDS011;4604;48.616;9.548;2023-05-10T15:30:10;1.83;;;1.27;;
9138;SDS011;4604;48.616;9.548;2023-05-10T15:32:41;1.83;;;1.70;;
9138;SDS011;4604;48.616;9.548;2023-05-10T15:35:08;1.45;;;1.33;;
9138;SDS011;4604;48.616;9.548;2023-05-10T15:37:35;1.50;;;1.40;;
9138;SDS011;4604;48.616;9.548;2023-05-10T15:40:02;1.40;;;1.30;;
9138;SDS011;4604;48.616;9.548;2023-05-10T15:42:30;1.55;;;1.40;;
9138;SDS011;4604;48.616;9.548;2023-05-10T15:44:58;1.60;;;1.50;;
9138;SDS011;4604;48.616;9.548;2023-05-10T15:47:25;1.95;;;1.73;;
9138;SDS011;4604;48.616;9.548;2023-05-10T15:49:54;1.60;;;1.50;;
9138;SDS011;4604;48.616;9.548;2023-05-10T15:52:22;2.17;;;1.83;;
9138;SDS011;4604;48.616;9.548;2023-05-10T15:54:49;2.17;;;1.35;;
9138;SDS011;4604;48.616;9.548;2023-05-10T15:57:16;1.30;;;1.20;;
9138;SDS011;4604;48.616;9.548;2023-05-10T15:59:43;1.58;;;1.33;;
9138;SDS011;4604;48.616;9.548;2023-05-10T16:02:11;1.45;;;1.35;;